Skjaerbuen — LM6526 — position and weather

sailwx.info

Track history (hours):
 
Tides and Currents Weather Stations Pressure Air Temp Water Temp Dewpoint Dewpoint Depression Visibility Wind Speed Wind Dir Waves Ship Positions

Skjaerbuen

Last reported at 2017-Nov-16 09:05 UTC. Time now 2017-Dec-13 16:49 UTC.
Position N 70°60' E 025°58'.
Warning: this ship's position is 27 days out of date.

Length 10 m.

Type: Fishing. MMSI: 257338720.

Date/timePositionNaut miles runAvg speedWind from/ knotsBaromVisibWave heightAir tempDewpointWater temp
2017-Nov-16 09:05N 70°60' E 025°58'0 0.0
2017-Nov-16 08:59N 70°60' E 025°58'0 0.0
2017-Nov-16 08:29N 70°60' E 025°58'0 0.0
2017-Nov-16 07:59N 70°60' E 025°58'0 0.0
2017-Nov-16 07:29N 70°60' E 025°58'0 0.0
2017-Nov-16 06:59N 70°60' E 025°58'0 0.0
2017-Nov-16 06:29N 70°60' E 025°58'0 0.0
2017-Nov-16 05:59N 70°60' E 025°58'0 0.0
2017-Nov-16 05:29N 70°60' E 025°58'0 0.0
2017-Nov-16 04:59N 70°60' E 025°58'0 0.0
2017-Nov-16 04:29N 70°60' E 025°58'0 0.0
2017-Nov-16 03:59N 70°60' E 025°58'0 0.0
2017-Nov-16 03:29N 70°60' E 025°58'0 0.0
2017-Nov-16 02:59N 70°60' E 025°58'0 0.0
2017-Nov-16 02:29N 70°60' E 025°58'0 0.0
2017-Nov-16 01:56N 70°60' E 025°58'0 0.0
2017-Nov-16 01:29N 70°60' E 025°58'0 0.0
2017-Nov-16 00:56N 70°60' E 025°58'0 0.0
2017-Nov-16 00:29N 70°60' E 025°58'0 0.0
2017-Nov-15 23:59N 70°60' E 025°58'0 0.0
2017-Nov-15 23:23N 70°60' E 025°58'0 0.0
2017-Nov-15 22:59N 70°60' E 025°58'0 0.0
2017-Nov-15 22:29N 70°60' E 025°58'0 0.0
2017-Nov-15 21:59N 70°60' E 025°58'0 0.0
2017-Nov-15 21:26N 70°60' E 025°58'0 0.0
2017-Nov-15 20:59N 70°60' E 025°58'0 0.0
2017-Nov-15 20:29N 70°60' E 025°58'0 0.0
2017-Nov-15 19:59N 70°60' E 025°58'0 0.0
2017-Nov-15 19:29N 70°60' E 025°58'0 0.0
2017-Nov-15 18:59N 70°60' E 025°58'0 0.0
2017-Nov-15 18:29N 70°60' E 025°58'0 0.0
2017-Nov-15 17:59N 70°60' E 025°58'0 0.0
2017-Nov-15 17:29N 70°60' E 025°58'0 0.0
2017-Nov-15 16:59N 70°60' E 025°58'0 0.0
2017-Nov-15 16:29N 70°60' E 025°58'0 0.0
2017-Nov-15 15:59N 70°60' E 025°58'0 0.0
2017-Nov-15 15:29N 70°60' E 025°58'0 0.0
2017-Nov-15 14:59N 70°60' E 025°58'0 0.0
2017-Nov-15 14:26N 70°60' E 025°58'0 0.1
2017-Nov-15 13:55N 70°60' E 025°58'0 0.0
2017-Nov-15 13:30N 70°60' E 025°58'0 0.7
2017-Nov-15 13:00N 70°59' E 025°57'3 6.7
2017-Nov-15 12:30N 70°56' E 026°02'4 7.2
2017-Nov-15 12:00N 70°54' E 026°09'4 7.0
2017-Nov-15 11:30N 70°51' E 026°15'0 0.7
2017-Nov-15 10:59N 70°50' E 026°15'1 1.2
2017-Nov-15 10:30N 70°50' E 026°14'1 1.0
2017-Nov-15 09:59N 70°49' E 026°13'1 1.0
2017-Nov-15 09:30N 70°49' E 026°12'1 1.1
2017-Nov-15 08:59N 70°48' E 026°11'1 1.2
2017-Nov-15 08:30N 70°48' E 026°10'0 0.9
2017-Nov-15 08:00N 70°48' E 026°09'3 6.0
2017-Nov-15 07:30N 70°51' E 026°06'3 7.1
2017-Nov-15 07:00N 70°54' E 026°02'3 7.0
2017-Nov-15 06:30N 70°57' E 025°59'2 4.6
2017-Nov-15 05:58N 70°60' E 025°58'0 0.0
2017-Nov-15 05:28N 70°60' E 025°58'0 0.0
2017-Nov-15 04:58N 70°60' E 025°58'0 0.0
2017-Nov-15 04:28N 70°60' E 025°58'0 0.0
2017-Nov-15 03:58N 70°60' E 025°58'0 0.0
2017-Nov-15 03:28N 70°60' E 025°58'0 0.0
2017-Nov-15 02:58N 70°60' E 025°58'0 0.0
2017-Nov-15 02:28N 70°60' E 025°58'0 0.0
2017-Nov-15 01:58N 70°60' E 025°58'0 0.0
2017-Nov-15 01:28N 70°60' E 025°58'0 0.0
2017-Nov-15 00:58N 70°60' E 025°58'0 0.0
2017-Nov-15 00:28N 70°60' E 025°58'0 0.0
2017-Nov-14 23:58N 70°60' E 025°58'0 0.0
2017-Nov-14 23:28N 70°60' E 025°58'0 0.0
2017-Nov-14 22:58N 70°60' E 025°58'0 0.0
2017-Nov-14 22:28N 70°60' E 025°58'0 0.0
2017-Nov-14 21:58N 70°60' E 025°58'0 0.0
2017-Nov-14 21:28N 70°60' E 025°58'0 0.0
2017-Nov-14 20:58N 70°60' E 025°58'0 0.0
2017-Nov-14 20:25N 70°60' E 025°58'0 0.0
2017-Nov-14 19:58N 70°60' E 025°58'0 0.0
2017-Nov-14 19:25N 70°60' E 025°58'0 0.0
2017-Nov-14 18:58N 70°60' E 025°58'0 0.0
2017-Nov-14 18:28N 70°60' E 025°58'0 0.0
2017-Nov-14 17:58N 70°60' E 025°58'0 0.0
2017-Nov-14 17:28N 70°60' E 025°58'0 0.0
2017-Nov-14 16:55N 70°60' E 025°58'0 0.0
2017-Nov-14 16:28N 70°60' E 025°58'0 0.0
2017-Nov-14 15:58N 70°60' E 025°58'0 0.0
2017-Nov-14 15:25N 70°60' E 025°58'0 0.0
2017-Nov-14 14:55N 70°60' E 025°58'1 2.9
2017-Nov-14 14:30N 70°58' E 025°57'4 7.3
2017-Nov-14 14:00N 70°56' E 026°05'4 7.2
2017-Nov-14 13:30N 70°53' E 026°12'3 5.8
2017-Nov-14 13:00N 70°50' E 026°15'2 4.7
2017-Nov-14 12:30N 70°48' E 026°11'2 3.2
2017-Nov-14 11:59N 70°50' E 026°08'4 7.3
2017-Nov-14 11:30N 70°53' E 026°04'4 7.5
2017-Nov-14 10:59N 70°56' E 025°59'3 6.5
2017-Nov-14 10:30N 70°60' E 025°58'0 0.1
2017-Nov-14 09:58N 70°60' E 025°58'0 0.0
2017-Nov-14 09:28N 70°60' E 025°58'0 0.0
2017-Nov-14 08:58N 70°60' E 025°58'0 0.0
2017-Nov-14 08:28N 70°60' E 025°58'0 0.0
2017-Nov-14 07:58N 70°60' E 025°58'0 0.0
2017-Nov-14 07:31N 70°60' E 025°58'0 0.0
2017-Nov-14 07:00N 70°60' E 025°58'0 0.0
2017-Nov-14 06:27N 70°60' E 025°58'0 0.0
2017-Nov-14 06:00N 70°60' E 025°58'0 0.0
2017-Nov-14 05:30N 70°60' E 025°58'0 0.0
2017-Nov-14 05:00N 70°60' E 025°58'0 0.0
2017-Nov-14 04:30N 70°60' E 025°58'0 0.0
2017-Nov-14 04:00N 70°60' E 025°58'0 0.0
2017-Nov-14 03:30N 70°60' E 025°58'0 0.0
2017-Nov-14 03:00N 70°60' E 025°58'0 0.0
2017-Nov-14 02:30N 70°60' E 025°58'0 0.0
2017-Nov-14 02:00N 70°60' E 025°58'0 0.0
2017-Nov-14 01:30N 70°60' E 025°58'0 0.0
2017-Nov-14 01:00N 70°60' E 025°58'0 0.0
2017-Nov-14 00:30N 70°60' E 025°58'0 0.0
2017-Nov-14 00:00N 70°60' E 025°58'0 0.0
2017-Nov-13 23:27N 70°60' E 025°58'0 0.0
2017-Nov-13 23:00N 70°60' E 025°58'0 0.0
2017-Nov-13 22:24N 70°60' E 025°58'0 0.0
2017-Nov-13 22:00N 70°60' E 025°58'0 0.0
2017-Nov-13 02:00N 70°60' E 025°58'0 0.0
2017-Nov-13 01:30N 70°60' E 025°58'0 0.0
2017-Nov-13 01:00N 70°60' E 025°58'0 0.0
2017-Nov-13 00:30N 70°60' E 025°58'0 0.0
2017-Nov-13 00:00N 70°60' E 025°58'0 0.0
2017-Nov-12 23:27N 70°60' E 025°58'0 0.0
2017-Nov-12 23:00N 70°60' E 025°58'0 0.0
2017-Nov-12 22:30N 70°60' E 025°58'0 0.0
2017-Nov-12 22:00N 70°60' E 025°58'0 0.0
2017-Nov-12 21:30N 70°60' E 025°58'0 0.0
2017-Nov-12 21:00N 70°60' E 025°58'0 0.0
2017-Nov-12 20:30N 70°60' E 025°58'0 0.0
2017-Nov-12 20:00N 70°60' E 025°58'0 0.0
2017-Nov-12 19:30N 70°60' E 025°58'0 0.0
2017-Nov-12 19:00N 70°60' E 025°58'0 0.0
2017-Nov-12 18:30N 70°60' E 025°58'0 0.0
2017-Nov-12 18:00N 70°60' E 025°58'0 0.0
2017-Nov-12 17:29N 70°60' E 025°58'0 0.0
2017-Nov-12 16:59N 70°60' E 025°58'0 0.0
2017-Nov-12 16:29N 70°60' E 025°58'0 0.0
2017-Nov-12 15:56N 70°60' E 025°58'0 0.0
2017-Nov-12 15:29N 70°60' E 025°58'0 0.0
2017-Nov-12 14:59N 70°60' E 025°58'0 0.0
2017-Nov-12 14:29N 70°60' E 025°58'0 0.0
2017-Nov-12 13:59N 70°60' E 025°58'0 0.0
2017-Nov-12 13:29N 70°60' E 025°58'0 0.0
2017-Nov-12 12:59N 70°60' E 025°58'0 0.0
2017-Nov-12 12:29N 70°60' E 025°58'0 0.0
2017-Nov-12 11:59N 70°60' E 025°58'0 0.0
2017-Nov-12 11:29N 70°60' E 025°58'0 0.0
2017-Nov-12 10:59N 70°60' E 025°58'0 0.0
2017-Nov-12 10:29N 70°60' E 025°58'0 0.0
2017-Nov-12 09:59N 70°60' E 025°58'0 0.0
2017-Nov-12 09:29N 70°60' E 025°58'0 0.0
2017-Nov-12 08:59N 70°60' E 025°58'0 0.0
2017-Nov-12 08:28N 70°60' E 025°58'0 0.0
2017-Nov-12 07:58N 70°60' E 025°58'0 0.0
2017-Nov-12 07:28N 70°60' E 025°58'0 0.0
2017-Nov-12 06:58N 70°60' E 025°58'0 0.0
2017-Nov-12 06:28N 70°60' E 025°58'0 0.0
2017-Nov-12 05:58N 70°60' E 025°58'0 0.0
2017-Nov-12 05:28N 70°60' E 025°58'0 0.0
2017-Nov-12 04:58N 70°60' E 025°58'0 0.0
2017-Nov-12 04:28N 70°60' E 025°58'0 0.0
2017-Nov-12 03:58N 70°60' E 025°58'0 0.0
2017-Nov-12 03:28N 70°60' E 025°58'0 0.0
2017-Nov-12 02:58N 70°60' E 025°58'0 0.0
2017-Nov-12 02:28N 70°60' E 025°58'0 0.0
2017-Nov-12 01:58N 70°60' E 025°58'0 0.0
2017-Nov-12 01:28N 70°60' E 025°58'0 0.0
2017-Nov-12 00:58N 70°60' E 025°58'0 0.0
2017-Nov-12 00:28N 70°60' E 025°58'0 0.0
2017-Nov-12 00:00N 70°60' E 025°58'0 0.0
2017-Nov-11 23:30N 70°60' E 025°58'0 0.0
2017-Nov-11 23:00N 70°60' E 025°58'0 0.0
2017-Nov-11 22:30N 70°60' E 025°58'0 0.0
2017-Nov-11 21:57N 70°60' E 025°58'0 0.0
2017-Nov-11 21:30N 70°60' E 025°58'0 0.0
2017-Nov-11 21:00N 70°60' E 025°58'0 0.0
2017-Nov-11 20:30N 70°60' E 025°58'0 0.0
2017-Nov-11 19:51N 70°60' E 025°58'0 0.0
2017-Nov-11 19:27N 70°60' E 025°58'0 0.0
2017-Nov-11 19:00N 70°60' E 025°58'0 0.0
2017-Nov-11 18:30N 70°60' E 025°58'0 0.0
2017-Nov-11 18:00N 70°60' E 025°58'0 0.0
2017-Nov-11 17:30N 70°60' E 025°58'0 0.0
2017-Nov-11 17:00N 70°60' E 025°58'0 0.0
2017-Nov-11 16:30N 70°60' E 025°58'0 0.0
2017-Nov-11 16:00N 70°60' E 025°58'0 0.0
2017-Nov-11 15:30N 70°60' E 025°58'0 0.0
2017-Nov-11 14:59N 70°60' E 025°58'0 0.0
2017-Nov-11 14:26N 70°60' E 025°58'0 0.0
2017-Nov-11 13:59N 70°60' E 025°58'0 0.0
2017-Nov-11 13:29N 70°60' E 025°58'0 0.0
2017-Nov-11 12:59N 70°60' E 025°58'0 0.0
2017-Nov-11 12:29N 70°60' E 025°58'0 0.0
2017-Nov-11 11:59N 70°60' E 025°58'0 0.0
2017-Nov-11 11:26N 70°60' E 025°58'0 0.0
2017-Nov-11 10:56N 70°60' E 025°58'0 0.0
2017-Nov-11 10:29N 70°60' E 025°58'0 0.0
2017-Nov-11 09:59N 70°60' E 025°58'0 0.0
2017-Nov-11 09:29N 70°60' E 025°58'0 0.0
2017-Nov-11 08:59N 70°60' E 025°58'0 0.0
2017-Nov-11 08:29N 70°60' E 025°58'0 0.0
2017-Nov-11 07:59N 70°60' E 025°58'0 0.0
2017-Nov-11 07:29N 70°60' E 025°58'0 0.0
2017-Nov-11 06:59N 70°60' E 025°58'0 0.0
2017-Nov-11 06:29N 70°60' E 025°58'0 0.0
2017-Nov-11 05:58N 70°60' E 025°58'0 0.0
2017-Nov-11 05:28N 70°60' E 025°58'0 0.0
2017-Nov-11 04:58N 70°60' E 025°58'0 0.0
2017-Nov-11 04:28N 70°60' E 025°58'0 0.0
2017-Nov-11 03:58N 70°60' E 025°58'0 0.0
2017-Nov-11 03:28N 70°60' E 025°58'0 0.0
2017-Nov-11 02:58N 70°60' E 025°58'0 0.0
2017-Nov-11 02:28N 70°60' E 025°58'0 0.0
2017-Nov-11 01:58N 70°60' E 025°58'0 0.0
2017-Nov-11 01:28N 70°60' E 025°58'0 0.0
2017-Nov-11 00:58N 70°60' E 025°58'0 0.0
2017-Nov-11 00:28N 70°60' E 025°58'0 0.0
2017-Nov-10 23:58N 70°60' E 025°58'0 0.0
2017-Nov-10 23:28N 70°60' E 025°58'0 0.0
2017-Nov-10 22:58N 70°60' E 025°58'0 0.0
2017-Nov-10 22:28N 70°60' E 025°58'0 0.0
2017-Nov-10 21:55N 70°60' E 025°58'0 0.0
2017-Nov-10 21:31N 70°60' E 025°58'0 0.0
2017-Nov-10 21:00N 70°60' E 025°58'0 0.0
2017-Nov-10 20:30N 70°60' E 025°58'0 0.0
2017-Nov-10 20:00N 70°60' E 025°58'0 0.0
2017-Nov-10 19:30N 70°60' E 025°58'0 0.0
2017-Nov-10 19:00N 70°60' E 025°58'0 0.0
2017-Nov-10 18:30N 70°60' E 025°58'0 0.0
2017-Nov-10 18:00N 70°60' E 025°58'0 0.0
2017-Nov-10 17:30N 70°60' E 025°58'0 0.0
2017-Nov-10 17:00N 70°60' E 025°58'0 0.0
2017-Nov-10 16:27N 70°60' E 025°58'0 0.0
2017-Nov-10 15:54N 70°60' E 025°58'0 0.0
2017-Nov-10 15:27N 70°60' E 025°58'0 0.0
2017-Nov-10 15:00N 70°60' E 025°58'0 0.0
2017-Nov-10 14:30N 70°60' E 025°58'0 0.0
2017-Nov-10 14:00N 70°60' E 025°58'0 0.0
2017-Nov-10 13:30N 70°60' E 025°58'0 0.0
2017-Nov-10 13:00N 70°60' E 025°58'0 0.0
2017-Nov-10 12:27N 70°60' E 025°58'0 0.0
2017-Nov-10 11:59N 70°60' E 025°58'0 0.0
2017-Nov-10 11:29N 70°60' E 025°58'0 0.0
2017-Nov-10 10:59N 70°60' E 025°58'0 0.0
2017-Nov-10 10:29N 70°60' E 025°58'0 0.0
2017-Nov-10 09:59N 70°60' E 025°58'0 0.0
2017-Nov-10 09:29N 70°60' E 025°58'0 0.0
2017-Nov-10 08:47N 70°60' E 025°58'0 0.0
2017-Nov-10 08:29N 70°60' E 025°58'0 0.0
2017-Nov-10 07:59N 70°60' E 025°58'0 0.0
2017-Nov-10 07:26N 70°60' E 025°58'0 0.0
2017-Nov-10 06:56N 70°60' E 025°58'0 0.0
2017-Nov-10 06:29N 70°60' E 025°58'0 0.0
2017-Nov-10 05:59N 70°60' E 025°58'0 0.0
2017-Nov-10 05:23N 70°60' E 025°58'0 0.0
2017-Nov-10 04:59N 70°60' E 025°58'0 0.0
2017-Nov-10 04:26N 70°60' E 025°58'0 0.0
2017-Nov-10 03:56N 70°60' E 025°58'0 0.0
2017-Nov-10 03:29N 70°60' E 025°58'0 0.0
2017-Nov-10 02:59N 70°60' E 025°58'0 0.0
2017-Nov-10 02:29N 70°60' E 025°58'0 0.0
2017-Nov-10 01:59N 70°60' E 025°58'0 0.0
2017-Nov-10 01:29N 70°60' E 025°58'0 0.0
2017-Nov-10 00:59N 70°60' E 025°58'0 0.0
2017-Nov-10 00:29N 70°60' E 025°58'0 0.0
2017-Nov-09 23:59N 70°60' E 025°58'0 0.0
2017-Nov-09 23:29N 70°60' E 025°58'0 0.0
2017-Nov-09 22:56N 70°60' E 025°58'0 0.0
2017-Nov-09 22:29N 70°60' E 025°58'0 0.0
2017-Nov-09 21:59N 70°60' E 025°58'0 0.0
2017-Nov-09 21:23N 70°60' E 025°58'0 0.0
2017-Nov-09 20:59N 70°60' E 025°58'0 0.0
2017-Nov-09 20:29N 70°60' E 025°58'0 0.0
2017-Nov-09 19:59N 70°60' E 025°58'0 0.0
2017-Nov-09 19:26N 70°60' E 025°58'0 0.0
2017-Nov-09 18:58N 70°60' E 025°58'0 0.0
2017-Nov-09 18:28N 70°60' E 025°58'0 0.0
2017-Nov-09 17:58N 70°60' E 025°58'0 0.0
2017-Nov-09 17:28N 70°60' E 025°58'0 0.0
2017-Nov-09 16:55N 70°60' E 025°58'0 0.0
2017-Nov-09 16:28N 70°60' E 025°58'0 0.0
2017-Nov-09 15:52N 70°60' E 025°58'0 0.0
2017-Nov-09 15:28N 70°60' E 025°58'0 0.0
2017-Nov-09 14:58N 70°60' E 025°58'0 0.0
2017-Nov-09 14:28N 70°60' E 025°58'0 0.0
2017-Nov-09 13:58N 70°60' E 025°58'0 0.0
2017-Nov-09 13:28N 70°60' E 025°58'0 0.0
2017-Nov-09 12:58N 70°60' E 025°58'0 0.0
2017-Nov-09 12:28N 70°60' E 025°58'0 0.0
2017-Nov-09 11:58N 70°60' E 025°58'0 0.0
2017-Nov-09 11:28N 70°60' E 025°58'0 0.0
2017-Nov-09 10:58N 70°60' E 025°58'1 2.6
2017-Nov-09 10:30N 70°58' E 025°57'2 3.2
2017-Nov-09 10:00N 70°58' E 026°02'0 0.9
2017-Nov-09 09:30N 70°58' E 026°03'0 0.7
2017-Nov-09 09:00N 70°58' E 026°03'0 0.7
2017-Nov-09 08:31N 70°57' E 026°03'2 4.0
2017-Nov-09 08:00N 70°58' E 025°57'1 2.2
2017-Nov-09 07:27N 70°60' E 025°58'0 0.0
2017-Nov-09 07:00N 70°60' E 025°58'0 0.0
2017-Nov-09 06:27N 70°60' E 025°58'0 0.0
2017-Nov-09 06:00N 70°60' E 025°58'0 0.0
2017-Nov-09 05:30N 70°60' E 025°58'0 0.0
2017-Nov-09 04:48N 70°60' E 025°58'0 0.0
2017-Nov-09 04:30N 70°60' E 025°58'0 0.0
2017-Nov-09 04:00N 70°60' E 025°58'0 0.0
2017-Nov-09 03:24N 70°60' E 025°58'0 0.0
2017-Nov-09 03:00N 70°60' E 025°58'0 0.0
2017-Nov-09 02:30N 70°60' E 025°58'0 0.0
2017-Nov-09 02:00N 70°60' E 025°58'0 0.0
2017-Nov-09 01:30N 70°60' E 025°58'0 0.0
2017-Nov-09 01:00N 70°60' E 025°58'0 0.0
2017-Nov-09 00:30N 70°60' E 025°58'0 0.0
2017-Nov-09 00:00N 70°60' E 025°58'0 0.0
2017-Nov-08 23:30N 70°60' E 025°58'0 0.0
2017-Nov-08 23:00N 70°60' E 025°58'0 0.0
2017-Nov-08 22:27N 70°60' E 025°58'0 0.0
2017-Nov-08 21:59N 70°60' E 025°58'0 0.0
2017-Nov-08 21:26N 70°60' E 025°58'0 0.0
2017-Nov-08 20:59N 70°60' E 025°58'0 0.0
2017-Nov-08 20:29N 70°60' E 025°58'0 0.0
2017-Nov-08 19:59N 70°60' E 025°58'0 0.0
2017-Nov-08 19:29N 70°60' E 025°58'0 0.0
2017-Nov-08 18:56N 70°60' E 025°58'0 0.0
2017-Nov-08 18:26N 70°60' E 025°58'0 0.0
2017-Nov-08 17:59N 70°60' E 025°58'0 0.0
2017-Nov-08 17:29N 70°60' E 025°58'0 0.0
2017-Nov-08 16:59N 70°60' E 025°58'0 0.0
2017-Nov-08 16:29N 70°60' E 025°58'0 0.0
2017-Nov-08 15:59N 70°60' E 025°58'0 0.0
2017-Nov-08 15:26N 70°60' E 025°58'0 0.0
2017-Nov-08 14:59N 70°60' E 025°58'0 0.0
2017-Nov-08 14:29N 70°60' E 025°58'0 0.0
2017-Nov-08 13:44N 70°60' E 025°58'0 0.0
2017-Nov-08 13:29N 70°60' E 025°58'0 0.0
2017-Nov-08 12:31N 70°60' E 025°58'0 0.0
2017-Nov-08 12:25N 70°60' E 025°58'0 0.0
2017-Nov-08 11:46N 70°60' E 025°58'0 0.0
2017-Nov-08 09:01N 70°60' E 025°58'0 0.0
2017-Nov-08 08:49N 70°60' E 025°58'0 0.0
2017-Nov-08 08:28N 70°60' E 025°58'0 0.0
2017-Nov-08 07:58N 70°60' E 025°58'0 0.0
2017-Nov-08 07:28N 70°60' E 025°58'0 0.0
2017-Nov-08 06:55N 70°60' E 025°58'0 0.0
2017-Nov-08 06:28N 70°60' E 025°58'0 0.0
2017-Nov-08 05:58N 70°60' E 025°58'0 0.0
2017-Nov-08 05:28N 70°60' E 025°58'0 0.0
2017-Nov-08 04:58N 70°60' E 025°58'0 0.0
2017-Nov-08 04:31N 70°60' E 025°58'0 0.0
2017-Nov-08 04:00N 70°60' E 025°58'0 0.0
2017-Nov-08 03:30N 70°60' E 025°58'0 0.0
2017-Nov-08 03:00N 70°60' E 025°58'0 0.0
2017-Nov-08 02:30N 70°60' E 025°58'0 0.0
2017-Nov-08 01:54N 70°60' E 025°58'0 0.0
2017-Nov-08 01:30N 70°60' E 025°58'0 0.0
2017-Nov-08 01:00N 70°60' E 025°58'0 0.0
2017-Nov-08 00:30N 70°60' E 025°58'0 0.0
2017-Nov-07 22:39N 70°60' E 025°58'0 0.0
2017-Nov-07 22:30N 70°60' E 025°58'0 0.0
2017-Nov-07 22:00N 70°60' E 025°58'0 0.0
2017-Nov-07 21:30N 70°60' E 025°58'0 0.0
2017-Nov-07 20:59N 70°60' E 025°58'0 0.0
2017-Nov-07 20:29N 70°60' E 025°58'0 0.0
2017-Nov-07 19:56N 70°60' E 025°58'0 0.0
2017-Nov-07 19:26N 70°60' E 025°58'0 0.8
2017-Nov-07 19:00N 70°59' E 025°57'3 5.1
2017-Nov-07 18:30N 70°57' E 026°02'0 0.7
2017-Nov-07 18:00N 70°57' E 026°03'1 1.4
2017-Nov-07 17:30N 70°57' E 026°01'0 0.6
2017-Nov-07 16:59N 70°57' E 026°01'0 0.4
2017-Nov-07 16:30N 70°56' E 026°01'3 5.1
2017-Nov-07 15:59N 70°59' E 025°57'1 1.6
2017-Nov-07 15:28N 70°60' E 025°58'0 0.0
2017-Nov-07 14:55N 70°60' E 025°58'0 0.0
2017-Nov-07 14:28N 70°60' E 025°58'0 0.0
2017-Nov-07 14:00N 70°60' E 025°58'0 0.0
2017-Nov-07 13:27N 70°60' E 025°58'0 0.0
2017-Nov-07 13:00N 70°60' E 025°58'0 0.0
2017-Nov-07 12:30N 70°60' E 025°58'0 0.0
2017-Nov-07 12:00N 70°60' E 025°58'0 0.0
2017-Nov-07 11:30N 70°60' E 025°58'0 0.0
2017-Nov-07 11:00N 70°60' E 025°58'0 0.0
2017-Nov-07 10:30N 70°60' E 025°58'0 0.0
2017-Nov-07 10:00N 70°60' E 025°58'0 0.0
2017-Nov-07 09:30N 70°60' E 025°58'0 0.0
2017-Nov-07 09:00N 70°60' E 025°58'0 0.0
2017-Nov-07 08:30N 70°60' E 025°58'0 0.0
2017-Nov-07 07:57N 70°60' E 025°58'0 0.0
2017-Nov-07 07:30N 70°60' E 025°58'0 0.0
2017-Nov-07 07:00N 70°60' E 025°58'0 0.0
2017-Nov-07 06:29N 70°60' E 025°58'0 0.0
2017-Nov-07 05:59N 70°60' E 025°58'0 0.0
2017-Nov-07 05:29N 70°60' E 025°58'0 0.0
2017-Nov-07 04:59N 70°60' E 025°58'0 0.0
2017-Nov-07 04:29N 70°60' E 025°58'0 0.0
2017-Nov-07 03:59N 70°60' E 025°58'0 0.0
2017-Nov-07 03:29N 70°60' E 025°58'0 0.0
2017-Nov-07 02:59N 70°60' E 025°58'0 0.0
2017-Nov-07 02:29N 70°60' E 025°58'0 0.0
2017-Nov-07 01:59N 70°60' E 025°58'0 0.0
2017-Nov-07 01:26N 70°60' E 025°58'0 0.0
2017-Nov-07 00:59N 70°60' E 025°58'0 0.0
2017-Nov-07 00:29N 70°60' E 025°58'0 0.0
2017-Nov-06 23:59N 70°60' E 025°58'0 0.0
2017-Nov-06 23:28N 70°60' E 025°58'0 0.0
2017-Nov-06 22:58N 70°60' E 025°58'0 0.0
2017-Nov-06 22:28N 70°60' E 025°58'0 0.0
2017-Nov-06 21:58N 70°60' E 025°58'0 0.0
2017-Nov-06 21:28N 70°60' E 025°58'0 0.0
2017-Nov-06 20:58N 70°60' E 025°58'0 0.0
2017-Nov-06 20:28N 70°60' E 025°58'  
Track history (hours):
 
Tides and Currents Weather Stations Pressure Air Temp Water Temp Dewpoint Dewpoint Depression Visibility Wind Speed Wind Dir Waves Ship Positions

Skjaerbuen

Last reported at 2017-Nov-16 09:05 UTC. Time now 2017-Dec-13 16:49 UTC.
Position N 70°60' E 025°58'.
Warning: this ship's position is 27 days out of date.

Length 10 m.

Type: Fishing. MMSI: 257338720.

Date/timePositionNaut miles runAvg speedWind from/ knotsBaromVisibWave heightAir tempDewpointWater temp
2017-Nov-16 09:05N 70°60' E 025°58'0 0.0
2017-Nov-16 08:59N 70°60' E 025°58'0 0.0
2017-Nov-16 08:29N 70°60' E 025°58'0 0.0
2017-Nov-16 07:59N 70°60' E 025°58'0 0.0
2017-Nov-16 07:29N 70°60' E 025°58'0 0.0
2017-Nov-16 06:59N 70°60' E 025°58'0 0.0
2017-Nov-16 06:29N 70°60' E 025°58'0 0.0
2017-Nov-16 05:59N 70°60' E 025°58'0 0.0
2017-Nov-16 05:29N 70°60' E 025°58'0 0.0
2017-Nov-16 04:59N 70°60' E 025°58'0 0.0
2017-Nov-16 04:29N 70°60' E 025°58'0 0.0
2017-Nov-16 03:59N 70°60' E 025°58'0 0.0
2017-Nov-16 03:29N 70°60' E 025°58'0 0.0
2017-Nov-16 02:59N 70°60' E 025°58'0 0.0
2017-Nov-16 02:29N 70°60' E 025°58'0 0.0
2017-Nov-16 01:56N 70°60' E 025°58'0 0.0
2017-Nov-16 01:29N 70°60' E 025°58'0 0.0
2017-Nov-16 00:56N 70°60' E 025°58'0 0.0
2017-Nov-16 00:29N 70°60' E 025°58'0 0.0
2017-Nov-15 23:59N 70°60' E 025°58'0 0.0
2017-Nov-15 23:23N 70°60' E 025°58'0 0.0
2017-Nov-15 22:59N 70°60' E 025°58'0 0.0
2017-Nov-15 22:29N 70°60' E 025°58'0 0.0
2017-Nov-15 21:59N 70°60' E 025°58'0 0.0
2017-Nov-15 21:26N 70°60' E 025°58'0 0.0
2017-Nov-15 20:59N 70°60' E 025°58'0 0.0
2017-Nov-15 20:29N 70°60' E 025°58'0 0.0
2017-Nov-15 19:59N 70°60' E 025°58'0 0.0
2017-Nov-15 19:29N 70°60' E 025°58'0 0.0
2017-Nov-15 18:59N 70°60' E 025°58'0 0.0
2017-Nov-15 18:29N 70°60' E 025°58'0 0.0
2017-Nov-15 17:59N 70°60' E 025°58'0 0.0
2017-Nov-15 17:29N 70°60' E 025°58'0 0.0
2017-Nov-15 16:59N 70°60' E 025°58'0 0.0
2017-Nov-15 16:29N 70°60' E 025°58'0 0.0
2017-Nov-15 15:59N 70°60' E 025°58'0 0.0
2017-Nov-15 15:29N 70°60' E 025°58'0 0.0
2017-Nov-15 14:59N 70°60' E 025°58'0 0.0
2017-Nov-15 14:26N 70°60' E 025°58'0 0.1
2017-Nov-15 13:55N 70°60' E 025°58'0 0.0
2017-Nov-15 13:30N 70°60' E 025°58'0 0.7
2017-Nov-15 13:00N 70°59' E 025°57'3 6.7
2017-Nov-15 12:30N 70°56' E 026°02'4 7.2
2017-Nov-15 12:00N 70°54' E 026°09'4 7.0
2017-Nov-15 11:30N 70°51' E 026°15'0 0.7
2017-Nov-15 10:59N 70°50' E 026°15'1 1.2
2017-Nov-15 10:30N 70°50' E 026°14'1 1.0
2017-Nov-15 09:59N 70°49' E 026°13'1 1.0
2017-Nov-15 09:30N 70°49' E 026°12'1 1.1
2017-Nov-15 08:59N 70°48' E 026°11'1 1.2
2017-Nov-15 08:30N 70°48' E 026°10'0 0.9
2017-Nov-15 08:00N 70°48' E 026°09'3 6.0
2017-Nov-15 07:30N 70°51' E 026°06'3 7.1
2017-Nov-15 07:00N 70°54' E 026°02'3 7.0
2017-Nov-15 06:30N 70°57' E 025°59'2 4.6
2017-Nov-15 05:58N 70°60' E 025°58'0 0.0
2017-Nov-15 05:28N 70°60' E 025°58'0 0.0
2017-Nov-15 04:58N 70°60' E 025°58'0 0.0
2017-Nov-15 04:28N 70°60' E 025°58'0 0.0
2017-Nov-15 03:58N 70°60' E 025°58'0 0.0
2017-Nov-15 03:28N 70°60' E 025°58'0 0.0
2017-Nov-15 02:58N 70°60' E 025°58'0 0.0
2017-Nov-15 02:28N 70°60' E 025°58'0 0.0
2017-Nov-15 01:58N 70°60' E 025°58'0 0.0
2017-Nov-15 01:28N 70°60' E 025°58'0 0.0
2017-Nov-15 00:58N 70°60' E 025°58'0 0.0
2017-Nov-15 00:28N 70°60' E 025°58'0 0.0
2017-Nov-14 23:58N 70°60' E 025°58'0 0.0
2017-Nov-14 23:28N 70°60' E 025°58'0 0.0
2017-Nov-14 22:58N 70°60' E 025°58'0 0.0
2017-Nov-14 22:28N 70°60' E 025°58'0 0.0
2017-Nov-14 21:58N 70°60' E 025°58'0 0.0
2017-Nov-14 21:28N 70°60' E 025°58'0 0.0
2017-Nov-14 20:58N 70°60' E 025°58'0 0.0
2017-Nov-14 20:25N 70°60' E 025°58'0 0.0
2017-Nov-14 19:58N 70°60' E 025°58'0 0.0
2017-Nov-14 19:25N 70°60' E 025°58'0 0.0
2017-Nov-14 18:58N 70°60' E 025°58'0 0.0
2017-Nov-14 18:28N 70°60' E 025°58'0 0.0
2017-Nov-14 17:58N 70°60' E 025°58'0 0.0
2017-Nov-14 17:28N 70°60' E 025°58'0 0.0
2017-Nov-14 16:55N 70°60' E 025°58'0 0.0
2017-Nov-14 16:28N 70°60' E 025°58'0 0.0
2017-Nov-14 15:58N 70°60' E 025°58'0 0.0
2017-Nov-14 15:25N 70°60' E 025°58'0 0.0
2017-Nov-14 14:55N 70°60' E 025°58'1 2.9
2017-Nov-14 14:30N 70°58' E 025°57'4 7.3
2017-Nov-14 14:00N 70°56' E 026°05'4 7.2
2017-Nov-14 13:30N 70°53' E 026°12'3 5.8
2017-Nov-14 13:00N 70°50' E 026°15'2 4.7
2017-Nov-14 12:30N 70°48' E 026°11'2 3.2
2017-Nov-14 11:59N 70°50' E 026°08'4 7.3
2017-Nov-14 11:30N 70°53' E 026°04'4 7.5
2017-Nov-14 10:59N 70°56' E 025°59'3 6.5
2017-Nov-14 10:30N 70°60' E 025°58'0 0.1
2017-Nov-14 09:58N 70°60' E 025°58'0 0.0
2017-Nov-14 09:28N 70°60' E 025°58'0 0.0
2017-Nov-14 08:58N 70°60' E 025°58'0 0.0
2017-Nov-14 08:28N 70°60' E 025°58'0 0.0
2017-Nov-14 07:58N 70°60' E 025°58'0 0.0
2017-Nov-14 07:31N 70°60' E 025°58'0 0.0
2017-Nov-14 07:00N 70°60' E 025°58'0 0.0
2017-Nov-14 06:27N 70°60' E 025°58'0 0.0
2017-Nov-14 06:00N 70°60' E 025°58'0 0.0
2017-Nov-14 05:30N 70°60' E 025°58'0 0.0
2017-Nov-14 05:00N 70°60' E 025°58'0 0.0
2017-Nov-14 04:30N 70°60' E 025°58'0 0.0
2017-Nov-14 04:00N 70°60' E 025°58'0 0.0
2017-Nov-14 03:30N 70°60' E 025°58'0 0.0
2017-Nov-14 03:00N 70°60' E 025°58'0 0.0
2017-Nov-14 02:30N 70°60' E 025°58'0 0.0
2017-Nov-14 02:00N 70°60' E 025°58'0 0.0
2017-Nov-14 01:30N 70°60' E 025°58'0 0.0
2017-Nov-14 01:00N 70°60' E 025°58'0 0.0
2017-Nov-14 00:30N 70°60' E 025°58'0 0.0
2017-Nov-14 00:00N 70°60' E 025°58'0 0.0
2017-Nov-13 23:27N 70°60' E 025°58'0 0.0
2017-Nov-13 23:00N 70°60' E 025°58'0 0.0
2017-Nov-13 22:24N 70°60' E 025°58'0 0.0
2017-Nov-13 22:00N 70°60' E 025°58'0 0.0
2017-Nov-13 02:00N 70°60' E 025°58'0 0.0
2017-Nov-13 01:30N 70°60' E 025°58'0 0.0
2017-Nov-13 01:00N 70°60' E 025°58'0 0.0
2017-Nov-13 00:30N 70°60' E 025°58'0 0.0
2017-Nov-13 00:00N 70°60' E 025°58'0 0.0
2017-Nov-12 23:27N 70°60' E 025°58'0 0.0
2017-Nov-12 23:00N 70°60' E 025°58'0 0.0
2017-Nov-12 22:30N 70°60' E 025°58'0 0.0
2017-Nov-12 22:00N 70°60' E 025°58'0 0.0
2017-Nov-12 21:30N 70°60' E 025°58'0 0.0
2017-Nov-12 21:00N 70°60' E 025°58'0 0.0
2017-Nov-12 20:30N 70°60' E 025°58'0 0.0
2017-Nov-12 20:00N 70°60' E 025°58'0 0.0
2017-Nov-12 19:30N 70°60' E 025°58'0 0.0
2017-Nov-12 19:00N 70°60' E 025°58'0 0.0
2017-Nov-12 18:30N 70°60' E 025°58'0 0.0
2017-Nov-12 18:00N 70°60' E 025°58'0 0.0
2017-Nov-12 17:29N 70°60' E 025°58'0 0.0
2017-Nov-12 16:59N 70°60' E 025°58'0 0.0
2017-Nov-12 16:29N 70°60' E 025°58'0 0.0
2017-Nov-12 15:56N 70°60' E 025°58'0 0.0
2017-Nov-12 15:29N 70°60' E 025°58'0 0.0
2017-Nov-12 14:59N 70°60' E 025°58'0 0.0
2017-Nov-12 14:29N 70°60' E 025°58'0 0.0
2017-Nov-12 13:59N 70°60' E 025°58'0 0.0
2017-Nov-12 13:29N 70°60' E 025°58'0 0.0
2017-Nov-12 12:59N 70°60' E 025°58'0 0.0
2017-Nov-12 12:29N 70°60' E 025°58'0 0.0
2017-Nov-12 11:59N 70°60' E 025°58'0 0.0
2017-Nov-12 11:29N 70°60' E 025°58'0 0.0
2017-Nov-12 10:59N 70°60' E 025°58'0 0.0
2017-Nov-12 10:29N 70°60' E 025°58'0 0.0
2017-Nov-12 09:59N 70°60' E 025°58'0 0.0
2017-Nov-12 09:29N 70°60' E 025°58'0 0.0
2017-Nov-12 08:59N 70°60' E 025°58'0 0.0
2017-Nov-12 08:28N 70°60' E 025°58'0 0.0
2017-Nov-12 07:58N 70°60' E 025°58'0 0.0
2017-Nov-12 07:28N 70°60' E 025°58'0 0.0
2017-Nov-12 06:58N 70°60' E 025°58'0 0.0
2017-Nov-12 06:28N 70°60' E 025°58'0 0.0
2017-Nov-12 05:58N 70°60' E 025°58'0 0.0
2017-Nov-12 05:28N 70°60' E 025°58'0 0.0
2017-Nov-12 04:58N 70°60' E 025°58'0 0.0
2017-Nov-12 04:28N 70°60' E 025°58'0 0.0
2017-Nov-12 03:58N 70°60' E 025°58'0 0.0
2017-Nov-12 03:28N 70°60' E 025°58'0 0.0
2017-Nov-12 02:58N 70°60' E 025°58'0 0.0
2017-Nov-12 02:28N 70°60' E 025°58'0 0.0
2017-Nov-12 01:58N 70°60' E 025°58'0 0.0
2017-Nov-12 01:28N 70°60' E 025°58'0 0.0
2017-Nov-12 00:58N 70°60' E 025°58'0 0.0
2017-Nov-12 00:28N 70°60' E 025°58'0 0.0
2017-Nov-12 00:00N 70°60' E 025°58'0 0.0
2017-Nov-11 23:30N 70°60' E 025°58'0 0.0
2017-Nov-11 23:00N 70°60' E 025°58'0 0.0
2017-Nov-11 22:30N 70°60' E 025°58'0 0.0
2017-Nov-11 21:57N 70°60' E 025°58'0 0.0
2017-Nov-11 21:30N 70°60' E 025°58'0 0.0
2017-Nov-11 21:00N 70°60' E 025°58'0 0.0
2017-Nov-11 20:30N 70°60' E 025°58'0 0.0
2017-Nov-11 19:51N 70°60' E 025°58'0 0.0
2017-Nov-11 19:27N 70°60' E 025°58'0 0.0
2017-Nov-11 19:00N 70°60' E 025°58'0 0.0
2017-Nov-11 18:30N 70°60' E 025°58'0 0.0
2017-Nov-11 18:00N 70°60' E 025°58'0 0.0
2017-Nov-11 17:30N 70°60' E 025°58'0 0.0
2017-Nov-11 17:00N 70°60' E 025°58'0 0.0
2017-Nov-11 16:30N 70°60' E 025°58'0 0.0
2017-Nov-11 16:00N 70°60' E 025°58'0 0.0
2017-Nov-11 15:30N 70°60' E 025°58'0 0.0
2017-Nov-11 14:59N 70°60' E 025°58'0 0.0
2017-Nov-11 14:26N 70°60' E 025°58'0 0.0
2017-Nov-11 13:59N 70°60' E 025°58'0 0.0
2017-Nov-11 13:29N 70°60' E 025°58'0 0.0
2017-Nov-11 12:59N 70°60' E 025°58'0 0.0
2017-Nov-11 12:29N 70°60' E 025°58'0 0.0
2017-Nov-11 11:59N 70°60' E 025°58'0 0.0
2017-Nov-11 11:26N 70°60' E 025°58'0 0.0
2017-Nov-11 10:56N 70°60' E 025°58'0 0.0
2017-Nov-11 10:29N 70°60' E 025°58'0 0.0
2017-Nov-11 09:59N 70°60' E 025°58'0 0.0
2017-Nov-11 09:29N 70°60' E 025°58'0 0.0
2017-Nov-11 08:59N 70°60' E 025°58'0 0.0
2017-Nov-11 08:29N 70°60' E 025°58'0 0.0
2017-Nov-11 07:59N 70°60' E 025°58'0 0.0
2017-Nov-11 07:29N 70°60' E 025°58'0 0.0
2017-Nov-11 06:59N 70°60' E 025°58'0 0.0
2017-Nov-11 06:29N 70°60' E 025°58'0 0.0
2017-Nov-11 05:58N 70°60' E 025°58'0 0.0
2017-Nov-11 05:28N 70°60' E 025°58'0 0.0
2017-Nov-11 04:58N 70°60' E 025°58'0 0.0
2017-Nov-11 04:28N 70°60' E 025°58'0 0.0
2017-Nov-11 03:58N 70°60' E 025°58'0 0.0
2017-Nov-11 03:28N 70°60' E 025°58'0 0.0
2017-Nov-11 02:58N 70°60' E 025°58'0 0.0
2017-Nov-11 02:28N 70°60' E 025°58'0 0.0
2017-Nov-11 01:58N 70°60' E 025°58'0 0.0
2017-Nov-11 01:28N 70°60' E 025°58'0 0.0
2017-Nov-11 00:58N 70°60' E 025°58'0 0.0
2017-Nov-11 00:28N 70°60' E 025°58'0 0.0
2017-Nov-10 23:58N 70°60' E 025°58'0 0.0
2017-Nov-10 23:28N 70°60' E 025°58'0 0.0
2017-Nov-10 22:58N 70°60' E 025°58'0 0.0
2017-Nov-10 22:28N 70°60' E 025°58'0 0.0
2017-Nov-10 21:55N 70°60' E 025°58'0 0.0
2017-Nov-10 21:31N 70°60' E 025°58'0 0.0
2017-Nov-10 21:00N 70°60' E 025°58'0 0.0
2017-Nov-10 20:30N 70°60' E 025°58'0 0.0
2017-Nov-10 20:00N 70°60' E 025°58'0 0.0
2017-Nov-10 19:30N 70°60' E 025°58'0 0.0
2017-Nov-10 19:00N 70°60' E 025°58'0 0.0
2017-Nov-10 18:30N 70°60' E 025°58'0 0.0
2017-Nov-10 18:00N 70°60' E 025°58'0 0.0
2017-Nov-10 17:30N 70°60' E 025°58'0 0.0
2017-Nov-10 17:00N 70°60' E 025°58'0 0.0
2017-Nov-10 16:27N 70°60' E 025°58'0 0.0
2017-Nov-10 15:54N 70°60' E 025°58'0 0.0
2017-Nov-10 15:27N 70°60' E 025°58'0 0.0
2017-Nov-10 15:00N 70°60' E 025°58'0 0.0
2017-Nov-10 14:30N 70°60' E 025°58'0 0.0
2017-Nov-10 14:00N 70°60' E 025°58'0 0.0
2017-Nov-10 13:30N 70°60' E 025°58'0 0.0
2017-Nov-10 13:00N 70°60' E 025°58'0 0.0
2017-Nov-10 12:27N 70°60' E 025°58'0 0.0
2017-Nov-10 11:59N 70°60' E 025°58'0 0.0
2017-Nov-10 11:29N 70°60' E 025°58'0 0.0
2017-Nov-10 10:59N 70°60' E 025°58'0 0.0
2017-Nov-10 10:29N 70°60' E 025°58'0 0.0
2017-Nov-10 09:59N 70°60' E 025°58'0 0.0
2017-Nov-10 09:29N 70°60' E 025°58'0 0.0
2017-Nov-10 08:47N 70°60' E 025°58'0 0.0
2017-Nov-10 08:29N 70°60' E 025°58'0 0.0
2017-Nov-10 07:59N 70°60' E 025°58'0 0.0
2017-Nov-10 07:26N 70°60' E 025°58'0 0.0
2017-Nov-10 06:56N 70°60' E 025°58'0 0.0
2017-Nov-10 06:29N 70°60' E 025°58'0 0.0
2017-Nov-10 05:59N 70°60' E 025°58'0 0.0
2017-Nov-10 05:23N 70°60' E 025°58'0 0.0
2017-Nov-10 04:59N 70°60' E 025°58'0 0.0
2017-Nov-10 04:26N 70°60' E 025°58'0 0.0
2017-Nov-10 03:56N 70°60' E 025°58'0 0.0
2017-Nov-10 03:29N 70°60' E 025°58'0 0.0
2017-Nov-10 02:59N 70°60' E 025°58'0 0.0
2017-Nov-10 02:29N 70°60' E 025°58'0 0.0
2017-Nov-10 01:59N 70°60' E 025°58'0 0.0
2017-Nov-10 01:29N 70°60' E 025°58'0 0.0
2017-Nov-10 00:59N 70°60' E 025°58'0 0.0
2017-Nov-10 00:29N 70°60' E 025°58'0 0.0
2017-Nov-09 23:59N 70°60' E 025°58'0 0.0
2017-Nov-09 23:29N 70°60' E 025°58'0 0.0
2017-Nov-09 22:56N 70°60' E 025°58'0 0.0
2017-Nov-09 22:29N 70°60' E 025°58'0 0.0
2017-Nov-09 21:59N 70°60' E 025°58'0 0.0
2017-Nov-09 21:23N 70°60' E 025°58'0 0.0
2017-Nov-09 20:59N 70°60' E 025°58'0 0.0
2017-Nov-09 20:29N 70°60' E 025°58'0 0.0
2017-Nov-09 19:59N 70°60' E 025°58'0 0.0
2017-Nov-09 19:26N 70°60' E 025°58'0 0.0
2017-Nov-09 18:58N 70°60' E 025°58'0 0.0
2017-Nov-09 18:28N 70°60' E 025°58'0 0.0
2017-Nov-09 17:58N 70°60' E 025°58'0 0.0
2017-Nov-09 17:28N 70°60' E 025°58'0 0.0
2017-Nov-09 16:55N 70°60' E 025°58'0 0.0
2017-Nov-09 16:28N 70°60' E 025°58'0 0.0
2017-Nov-09 15:52N 70°60' E 025°58'0 0.0
2017-Nov-09 15:28N 70°60' E 025°58'0 0.0
2017-Nov-09 14:58N 70°60' E 025°58'0 0.0
2017-Nov-09 14:28N 70°60' E 025°58'0 0.0
2017-Nov-09 13:58N 70°60' E 025°58'0 0.0
2017-Nov-09 13:28N 70°60' E 025°58'0 0.0
2017-Nov-09 12:58N 70°60' E 025°58'0 0.0
2017-Nov-09 12:28N 70°60' E 025°58'0 0.0
2017-Nov-09 11:58N 70°60' E 025°58'0 0.0
2017-Nov-09 11:28N 70°60' E 025°58'0 0.0
2017-Nov-09 10:58N 70°60' E 025°58'1 2.6
2017-Nov-09 10:30N 70°58' E 025°57'2 3.2
2017-Nov-09 10:00N 70°58' E 026°02'0 0.9
2017-Nov-09 09:30N 70°58' E 026°03'0 0.7
2017-Nov-09 09:00N 70°58' E 026°03'0 0.7
2017-Nov-09 08:31N 70°57' E 026°03'2 4.0
2017-Nov-09 08:00N 70°58' E 025°57'1 2.2
2017-Nov-09 07:27N 70°60' E 025°58'0 0.0
2017-Nov-09 07:00N 70°60' E 025°58'0 0.0
2017-Nov-09 06:27N 70°60' E 025°58'0 0.0
2017-Nov-09 06:00N 70°60' E 025°58'0 0.0
2017-Nov-09 05:30N 70°60' E 025°58'0 0.0
2017-Nov-09 04:48N 70°60' E 025°58'0 0.0
2017-Nov-09 04:30N 70°60' E 025°58'0 0.0
2017-Nov-09 04:00N 70°60' E 025°58'0 0.0
2017-Nov-09 03:24N 70°60' E 025°58'0 0.0
2017-Nov-09 03:00N 70°60' E 025°58'0 0.0
2017-Nov-09 02:30N 70°60' E 025°58'0 0.0
2017-Nov-09 02:00N 70°60' E 025°58'0 0.0
2017-Nov-09 01:30N 70°60' E 025°58'0 0.0
2017-Nov-09 01:00N 70°60' E 025°58'0 0.0
2017-Nov-09 00:30N 70°60' E 025°58'0 0.0
2017-Nov-09 00:00N 70°60' E 025°58'0 0.0
2017-Nov-08 23:30N 70°60' E 025°58'0 0.0
2017-Nov-08 23:00N 70°60' E 025°58'0 0.0
2017-Nov-08 22:27N 70°60' E 025°58'0 0.0
2017-Nov-08 21:59N 70°60' E 025°58'0 0.0
2017-Nov-08 21:26N 70°60' E 025°58'0 0.0
2017-Nov-08 20:59N 70°60' E 025°58'0 0.0
2017-Nov-08 20:29N 70°60' E 025°58'0 0.0
2017-Nov-08 19:59N 70°60' E 025°58'0 0.0
2017-Nov-08 19:29N 70°60' E 025°58'0 0.0
2017-Nov-08 18:56N 70°60' E 025°58'0 0.0
2017-Nov-08 18:26N 70°60' E 025°58'0 0.0
2017-Nov-08 17:59N 70°60' E 025°58'0 0.0
2017-Nov-08 17:29N 70°60' E 025°58'0 0.0
2017-Nov-08 16:59N 70°60' E 025°58'0 0.0
2017-Nov-08 16:29N 70°60' E 025°58'0 0.0
2017-Nov-08 15:59N 70°60' E 025°58'0 0.0
2017-Nov-08 15:26N 70°60' E 025°58'0 0.0
2017-Nov-08 14:59N 70°60' E 025°58'0 0.0
2017-Nov-08 14:29N 70°60' E 025°58'0 0.0
2017-Nov-08 13:44N 70°60' E 025°58'0 0.0
2017-Nov-08 13:29N 70°60' E 025°58'0 0.0
2017-Nov-08 12:31N 70°60' E 025°58'0 0.0
2017-Nov-08 12:25N 70°60' E 025°58'0 0.0
2017-Nov-08 11:46N 70°60' E 025°58'0 0.0
2017-Nov-08 09:01N 70°60' E 025°58'0 0.0
2017-Nov-08 08:49N 70°60' E 025°58'0 0.0
2017-Nov-08 08:28N 70°60' E 025°58'0 0.0
2017-Nov-08 07:58N 70°60' E 025°58'0 0.0
2017-Nov-08 07:28N 70°60' E 025°58'0 0.0
2017-Nov-08 06:55N 70°60' E 025°58'0 0.0
2017-Nov-08 06:28N 70°60' E 025°58'0 0.0
2017-Nov-08 05:58N 70°60' E 025°58'0 0.0
2017-Nov-08 05:28N 70°60' E 025°58'0 0.0
2017-Nov-08 04:58N 70°60' E 025°58'0 0.0
2017-Nov-08 04:31N 70°60' E 025°58'0 0.0
2017-Nov-08 04:00N 70°60' E 025°58'0 0.0
2017-Nov-08 03:30N 70°60' E 025°58'0 0.0
2017-Nov-08 03:00N 70°60' E 025°58'0 0.0
2017-Nov-08 02:30N 70°60' E 025°58'0 0.0
2017-Nov-08 01:54N 70°60' E 025°58'0 0.0
2017-Nov-08 01:30N 70°60' E 025°58'0 0.0
2017-Nov-08 01:00N 70°60' E 025°58'0 0.0
2017-Nov-08 00:30N 70°60' E 025°58'0 0.0
2017-Nov-07 22:39N 70°60' E 025°58'0 0.0
2017-Nov-07 22:30N 70°60' E 025°58'0 0.0
2017-Nov-07 22:00N 70°60' E 025°58'0 0.0
2017-Nov-07 21:30N 70°60' E 025°58'0 0.0
2017-Nov-07 20:59N 70°60' E 025°58'0 0.0
2017-Nov-07 20:29N 70°60' E 025°58'0 0.0
2017-Nov-07 19:56N 70°60' E 025°58'0 0.0
2017-Nov-07 19:26N 70°60' E 025°58'0 0.8
2017-Nov-07 19:00N 70°59' E 025°57'3 5.1
2017-Nov-07 18:30N 70°57' E 026°02'0 0.7
2017-Nov-07 18:00N 70°57' E 026°03'1 1.4
2017-Nov-07 17:30N 70°57' E 026°01'0 0.6
2017-Nov-07 16:59N 70°57' E 026°01'0 0.4
2017-Nov-07 16:30N 70°56' E 026°01'3 5.1
2017-Nov-07 15:59N 70°59' E 025°57'1 1.6
2017-Nov-07 15:28N 70°60' E 025°58'0 0.0
2017-Nov-07 14:55N 70°60' E 025°58'0 0.0
2017-Nov-07 14:28N 70°60' E 025°58'0 0.0
2017-Nov-07 14:00N 70°60' E 025°58'0 0.0
2017-Nov-07 13:27N 70°60' E 025°58'0 0.0
2017-Nov-07 13:00N 70°60' E 025°58'0 0.0
2017-Nov-07 12:30N 70°60' E 025°58'0 0.0
2017-Nov-07 12:00N 70°60' E 025°58'0 0.0
2017-Nov-07 11:30N 70°60' E 025°58'0 0.0
2017-Nov-07 11:00N 70°60' E 025°58'0 0.0
2017-Nov-07 10:30N 70°60' E 025°58'0 0.0
2017-Nov-07 10:00N 70°60' E 025°58'0 0.0
2017-Nov-07 09:30N 70°60' E 025°58'0 0.0
2017-Nov-07 09:00N 70°60' E 025°58'0 0.0
2017-Nov-07 08:30N 70°60' E 025°58'0 0.0
2017-Nov-07 07:57N 70°60' E 025°58'0 0.0
2017-Nov-07 07:30N 70°60' E 025°58'0 0.0
2017-Nov-07 07:00N 70°60' E 025°58'0 0.0
2017-Nov-07 06:29N 70°60' E 025°58'0 0.0
2017-Nov-07 05:59N 70°60' E 025°58'0 0.0
2017-Nov-07 05:29N 70°60' E 025°58'0 0.0
2017-Nov-07 04:59N 70°60' E 025°58'0 0.0
2017-Nov-07 04:29N 70°60' E 025°58'0 0.0
2017-Nov-07 03:59N 70°60' E 025°58'0 0.0
2017-Nov-07 03:29N 70°60' E 025°58'0 0.0
2017-Nov-07 02:59N 70°60' E 025°58'0 0.0
2017-Nov-07 02:29N 70°60' E 025°58'0 0.0
2017-Nov-07 01:59N 70°60' E 025°58'0 0.0
2017-Nov-07 01:26N 70°60' E 025°58'0 0.0
2017-Nov-07 00:59N 70°60' E 025°58'0 0.0
2017-Nov-07 00:29N 70°60' E 025°58'0 0.0
2017-Nov-06 23:59N 70°60' E 025°58'0 0.0
2017-Nov-06 23:28N 70°60' E 025°58'0 0.0
2017-Nov-06 22:58N 70°60' E 025°58'0 0.0
2017-Nov-06 22:28N 70°60' E 025°58'0 0.0
2017-Nov-06 21:58N 70°60' E 025°58'0 0.0
2017-Nov-06 21:28N 70°60' E 025°58'0 0.0
2017-Nov-06 20:58N 70°60' E 025°58'0 0.0
2017-Nov-06 20:28N 70°60' E 025°58'  

Dump ship's entire track history